createdAt,value
2023-06-13T00:01:36.980Z,21.50
2023-06-13T00:04:09.849Z,21.50
2023-06-13T00:06:38.867Z,21.40
2023-06-13T00:09:10.360Z,21.40
2023-06-13T00:11:41.044Z,21.40
2023-06-13T00:14:13.350Z,21.40
2023-06-13T00:16:44.178Z,21.40
2023-06-13T00:19:16.822Z,21.30
2023-06-13T00:21:46.588Z,21.30
2023-06-13T00:24:14.413Z,21.30
2023-06-13T00:26:43.442Z,21.20
2023-06-13T00:29:10.312Z,21.20
2023-06-13T00:31:42.187Z,21.10
2023-06-13T00:34:11.381Z,21.10
2023-06-13T00:36:44.861Z,21.00
2023-06-13T00:39:12.488Z,21.00
2023-06-13T00:41:44.833Z,20.90
2023-06-13T00:44:15.527Z,20.80
2023-06-13T00:46:44.282Z,20.80
2023-06-13T00:49:17.342Z,20.80
2023-06-13T00:51:45.581Z,20.70
2023-06-13T00:54:14.911Z,20.70
2023-06-13T00:56:45.591Z,20.60
2023-06-13T00:59:16.285Z,20.60
2023-06-13T01:01:44.620Z,20.60
2023-06-13T01:04:14.746Z,20.60
2023-06-13T01:06:46.738Z,20.50
2023-06-13T01:09:19.142Z,20.50
2023-06-13T01:11:57.501Z,20.50
2023-06-13T01:15:12.993Z,20.40
2023-06-13T01:17:58.198Z,20.40
2023-06-13T01:20:37.808Z,20.40
2023-06-13T01:23:42.144Z,20.40
2023-06-13T01:26:53.407Z,20.30
2023-06-13T01:29:23.140Z,20.30
2023-06-13T01:31:58.024Z,20.30
2023-06-13T01:34:30.952Z,20.20
2023-06-13T01:37:00.412Z,20.20
2023-06-13T01:39:41.008Z,20.20
2023-06-13T01:42:14.067Z,20.20
2023-06-13T01:44:48.551Z,20.10
2023-06-13T01:48:07.473Z,20.10
2023-06-13T01:51:09.287Z,20.10
2023-06-13T01:53:47.476Z,20.00
2023-06-13T01:56:23.765Z,20.00
2023-06-13T01:59:00.733Z,19.90
2023-06-13T02:01:36.509Z,19.90
2023-06-13T02:04:06.723Z,19.90
2023-06-13T02:06:38.267Z,19.90
2023-06-13T02:09:09.726Z,19.90
2023-06-13T02:11:39.263Z,19.90
2023-06-13T02:14:08.434Z,19.90
2023-06-13T02:16:40.897Z,19.90
2023-06-13T02:19:14.884Z,19.80
2023-06-13T02:21:48.543Z,19.80
2023-06-13T02:24:23.056Z,19.80
2023-06-13T02:26:52.253Z,19.80
2023-06-13T02:29:24.102Z,19.80
2023-06-13T02:31:51.001Z,19.80
2023-06-13T02:34:21.424Z,19.70
2023-06-13T02:36:48.319Z,19.70
2023-06-13T02:39:18.211Z,19.60
2023-06-13T02:41:47.333Z,19.60
2023-06-13T02:44:14.236Z,19.50
2023-06-13T02:46:43.547Z,19.50
2023-06-13T02:49:11.041Z,19.40
2023-06-13T02:51:40.133Z,19.40
2023-06-13T02:54:12.257Z,19.30
2023-06-13T02:56:39.562Z,19.30
2023-06-13T02:59:06.600Z,19.30
2023-06-13T03:01:40.977Z,19.20
2023-06-13T03:04:11.526Z,19.20
2023-06-13T03:06:42.169Z,19.10
2023-06-13T03:09:12.199Z,19.10
2023-06-13T03:11:39.325Z,19.10
2023-06-13T03:14:14.263Z,19.10
2023-06-13T03:16:43.770Z,19.00
2023-06-13T03:19:12.823Z,19.00
2023-06-13T03:21:42.498Z,19.00
2023-06-13T03:24:12.350Z,19.00
2023-06-13T03:26:40.573Z,19.00
2023-06-13T03:29:12.561Z,18.90
2023-06-13T03:31:39.869Z,18.90
2023-06-13T03:34:09.845Z,18.90
2023-06-13T03:36:38.516Z,18.90
2023-06-13T03:39:06.085Z,18.90
2023-06-13T03:41:37.288Z,18.90
2023-06-13T03:44:08.808Z,18.90
2023-06-13T03:46:38.733Z,18.90
2023-06-13T03:49:08.037Z,18.90
2023-06-13T03:51:40.370Z,18.90
2023-06-13T03:54:07.292Z,18.90
2023-06-13T03:56:34.148Z,18.80
2023-06-13T03:59:03.341Z,18.80
2023-06-13T04:01:31.531Z,18.80
2023-06-13T04:04:03.465Z,18.80
2023-06-13T04:06:39.939Z,18.70
2023-06-13T04:09:11.180Z,18.80
2023-06-13T04:11:40.511Z,18.70
2023-06-13T04:14:09.586Z,18.70
2023-06-13T04:16:36.517Z,18.70
2023-06-13T04:19:06.203Z,18.70
2023-06-13T04:21:38.067Z,18.70
2023-06-13T04:24:07.856Z,18.70
2023-06-13T04:26:41.589Z,18.60
2023-06-13T04:29:10.186Z,18.60
2023-06-13T04:31:40.659Z,18.60
2023-06-13T04:34:12.472Z,18.60
2023-06-13T04:36:42.502Z,18.60
2023-06-13T04:39:10.077Z,18.60
2023-06-13T04:41:44.591Z,18.60
2023-06-13T04:44:16.703Z,18.60
2023-06-13T04:46:48.253Z,18.70
2023-06-13T04:49:16.557Z,18.70
2023-06-13T04:51:46.088Z,18.70
2023-06-13T04:54:16.878Z,18.70
2023-06-13T04:56:48.841Z,18.70
2023-06-13T04:59:16.090Z,18.70
2023-06-13T05:01:44.612Z,18.70
2023-06-13T05:04:17.499Z,18.80
2023-06-13T05:06:48.981Z,18.70
2023-06-13T05:09:18.454Z,18.80
2023-06-13T05:11:47.427Z,18.80
2023-06-13T05:14:16.893Z,18.80
2023-06-13T05:16:56.404Z,18.80
2023-06-13T05:19:28.599Z,18.80
2023-06-13T05:21:58.084Z,18.90
2023-06-13T05:24:30.098Z,18.90
2023-06-13T05:26:57.822Z,18.90
2023-06-13T05:29:30.713Z,18.90
2023-06-13T05:31:59.918Z,18.90
2023-06-13T05:34:29.180Z,19.00
2023-06-13T05:37:01.723Z,19.00
2023-06-13T05:39:33.617Z,19.00
2023-06-13T05:42:06.347Z,19.10
2023-06-13T05:44:33.276Z,19.10
2023-06-13T05:47:02.703Z,19.20
2023-06-13T05:49:34.099Z,19.20
2023-06-13T05:52:03.788Z,19.30
2023-06-13T05:54:31.870Z,19.30
2023-06-13T05:57:00.614Z,19.40
2023-06-13T05:59:30.034Z,19.40
2023-06-13T06:01:57.368Z,19.50
2023-06-13T06:04:29.116Z,19.50
2023-06-13T06:06:56.644Z,19.60
2023-06-13T06:09:26.387Z,19.60
2023-06-13T06:11:53.765Z,19.70
2023-06-13T06:14:24.104Z,19.70
2023-06-13T06:16:53.226Z,19.80
2023-06-13T06:19:20.208Z,19.90
2023-06-13T06:21:51.977Z,20.00
2023-06-13T06:24:18.987Z,20.00
2023-06-13T06:26:50.507Z,20.10
2023-06-13T06:29:17.621Z,20.10
2023-06-13T06:31:44.601Z,20.20
2023-06-13T06:34:13.740Z,20.30
2023-06-13T06:36:42.698Z,20.30
2023-06-13T06:39:14.502Z,20.40
2023-06-13T06:41:43.604Z,20.40
2023-06-13T06:44:20.418Z,20.50
2023-06-13T06:46:57.796Z,20.50
2023-06-13T06:49:27.159Z,20.60
2023-06-13T06:51:54.103Z,20.70
2023-06-13T06:54:26.273Z,20.80
2023-06-13T06:56:53.198Z,20.90
2023-06-13T06:59:22.153Z,20.90
2023-06-13T07:01:51.972Z,21.00
2023-06-13T07:04:21.421Z,21.00
2023-06-13T07:06:53.076Z,21.20
2023-06-13T07:09:22.996Z,21.10
2023-06-13T07:11:49.900Z,21.30
2023-06-13T07:14:24.082Z,21.40
2023-06-13T07:16:51.307Z,21.40
2023-06-13T07:19:20.419Z,21.50
2023-06-13T07:21:47.448Z,21.60
2023-06-13T07:24:16.895Z,21.70
2023-06-13T07:26:43.900Z,21.80
2023-06-13T07:29:16.268Z,21.90
2023-06-13T07:31:45.858Z,22.00
2023-06-13T07:34:34.599Z,22.10
2023-06-13T07:37:04.708Z,22.10
2023-06-13T07:39:38.256Z,22.20
2023-06-13T07:42:08.295Z,22.20
2023-06-13T07:44:37.354Z,22.30
2023-06-13T07:47:04.677Z,22.40
2023-06-13T07:49:36.095Z,22.50
2023-06-13T07:52:06.419Z,22.60
2023-06-13T07:54:33.317Z,22.70
2023-06-13T07:57:01.318Z,22.70
2023-06-13T07:59:31.952Z,22.80
2023-06-13T08:02:01.019Z,22.90
2023-06-13T08:04:39.818Z,23.00
2023-06-13T08:07:17.772Z,23.10
2023-06-13T08:09:44.903Z,23.20
2023-06-13T08:12:14.508Z,23.30
2023-06-13T08:14:43.486Z,23.30
2023-06-13T08:17:12.702Z,23.40
2023-06-13T08:19:40.142Z,23.50
2023-06-13T08:22:11.798Z,23.60
2023-06-13T08:24:46.665Z,23.60
2023-06-13T08:27:17.269Z,23.80
2023-06-13T08:29:46.789Z,23.80
2023-06-13T08:32:13.716Z,23.90
2023-06-13T08:34:41.071Z,24.00
2023-06-13T08:37:12.554Z,24.10
2023-06-13T08:39:42.905Z,24.20
2023-06-13T08:42:11.755Z,24.30
2023-06-13T08:44:42.591Z,24.30
2023-06-13T08:47:36.434Z,24.40
2023-06-13T08:50:07.624Z,24.50
2023-06-13T08:52:41.311Z,24.60
2023-06-13T08:55:37.510Z,24.70
2023-06-13T08:58:05.653Z,24.70
2023-06-13T09:00:39.144Z,24.80
2023-06-13T09:03:13.793Z,24.90
2023-06-13T09:05:42.792Z,25.00
2023-06-13T09:08:30.982Z,25.00
2023-06-13T09:11:02.921Z,25.20
2023-06-13T09:13:33.244Z,25.20
2023-06-13T09:16:05.130Z,25.30
2023-06-13T09:18:38.008Z,25.30
2023-06-13T09:21:05.374Z,25.30
2023-06-13T09:23:37.419Z,25.40
2023-06-13T09:26:07.251Z,25.40
2023-06-13T09:28:42.105Z,25.50
2023-06-13T09:31:12.723Z,25.50
2023-06-13T09:33:47.087Z,25.70
2023-06-13T09:36:18.052Z,25.70
2023-06-13T09:38:45.572Z,25.80
2023-06-13T09:41:24.804Z,25.90
2023-06-13T09:43:55.489Z,25.90
2023-06-13T09:46:28.886Z,26.00
2023-06-13T09:48:58.183Z,26.10
2023-06-13T09:51:30.610Z,26.10
2023-06-13T09:53:59.291Z,26.20
2023-06-13T09:56:28.848Z,26.30
2023-06-13T09:59:01.005Z,26.40
2023-06-13T10:01:30.521Z,26.40
2023-06-13T10:03:59.945Z,26.50
2023-06-13T10:06:30.477Z,26.50
2023-06-13T10:08:59.964Z,26.60
2023-06-13T10:11:36.606Z,26.70
2023-06-13T10:14:23.722Z,26.70
2023-06-13T10:17:09.178Z,26.80
2023-06-13T10:19:41.078Z,26.90
2023-06-13T10:22:13.156Z,27.00
2023-06-13T10:24:45.125Z,27.00
2023-06-13T10:27:18.489Z,27.10
2023-06-13T10:30:15.976Z,27.20
2023-06-13T10:32:52.006Z,27.20
2023-06-13T10:35:54.763Z,27.40
2023-06-13T10:39:05.088Z,27.50
2023-06-13T10:41:41.091Z,27.60
2023-06-13T10:44:42.930Z,27.80
2023-06-13T10:47:09.921Z,27.90
2023-06-13T10:49:39.185Z,28.10
2023-06-13T10:52:13.711Z,28.30
2023-06-13T10:54:41.841Z,28.40
2023-06-13T10:57:09.467Z,28.60
2023-06-13T10:59:41.874Z,28.80
2023-06-13T11:02:19.792Z,29.00
2023-06-13T11:04:56.193Z,29.30
2023-06-13T11:07:23.976Z,29.50
2023-06-13T11:10:12.760Z,29.80
2023-06-13T11:12:46.197Z,30.00
2023-06-13T11:15:29.336Z,30.30
2023-06-13T11:18:25.318Z,30.60
2023-06-13T11:20:58.508Z,30.90
2023-06-13T11:23:36.408Z,31.20
2023-06-13T11:26:05.360Z,31.40
2023-06-13T11:28:35.310Z,31.70
2023-06-13T11:31:07.210Z,31.90
2023-06-13T11:33:49.176Z,32.20
2023-06-13T11:36:19.694Z,32.50
2023-06-13T11:39:04.436Z,32.70
2023-06-13T11:41:33.099Z,33.00
2023-06-13T11:44:00.593Z,33.30
2023-06-13T11:46:30.907Z,33.60
2023-06-13T11:48:58.714Z,33.80
2023-06-13T11:51:36.294Z,34.10
2023-06-13T11:54:11.139Z,34.30
2023-06-13T11:56:53.987Z,34.60
2023-06-13T11:59:26.338Z,34.80
2023-06-13T12:01:55.164Z,34.90
2023-06-13T12:04:30.699Z,35.10
2023-06-13T12:07:07.266Z,35.30
2023-06-13T12:09:34.469Z,35.60
2023-06-13T12:12:04.150Z,35.80
2023-06-13T12:14:33.733Z,36.00
2023-06-13T12:17:03.362Z,36.20
2023-06-13T12:19:34.821Z,36.40
2023-06-13T12:22:04.590Z,36.50
2023-06-13T12:24:36.662Z,36.70
2023-06-13T12:27:04.178Z,36.90
2023-06-13T12:29:35.682Z,37.00
2023-06-13T12:32:07.158Z,37.10
2023-06-13T12:34:39.264Z,37.30
2023-06-13T12:37:09.179Z,37.30
2023-06-13T12:39:38.773Z,37.40
2023-06-13T12:42:09.138Z,37.50
2023-06-13T12:44:38.709Z,37.60
2023-06-13T12:47:11.511Z,37.80
2023-06-13T12:49:42.464Z,37.90
2023-06-13T12:52:19.179Z,38.00
2023-06-13T12:54:49.202Z,38.10
2023-06-13T12:57:17.240Z,38.30
2023-06-13T12:59:58.001Z,38.40
2023-06-13T13:02:28.031Z,38.50
2023-06-13T13:05:05.124Z,38.70
2023-06-13T13:07:32.475Z,38.80
2023-06-13T13:10:00.516Z,38.90
2023-06-13T13:12:27.919Z,39.00
2023-06-13T13:14:54.951Z,39.00
2023-06-13T13:17:22.137Z,39.00
2023-06-13T13:19:54.328Z,39.10
2023-06-13T13:22:22.301Z,39.20
2023-06-13T13:24:52.266Z,39.20
2023-06-13T13:27:19.124Z,39.30
2023-06-13T13:29:46.259Z,39.40
2023-06-13T13:32:15.209Z,39.60
2023-06-13T13:34:42.242Z,39.70
2023-06-13T13:37:13.562Z,39.70
2023-06-13T13:39:40.698Z,39.80
2023-06-13T13:42:22.184Z,39.80
2023-06-13T13:44:54.339Z,40.00
2023-06-13T13:47:21.268Z,40.00
2023-06-13T13:49:54.808Z,40.10
2023-06-13T13:52:27.212Z,40.20
2023-06-13T13:54:54.787Z,40.20
2023-06-13T13:57:24.182Z,40.30
2023-06-13T13:59:54.204Z,40.30
2023-06-13T14:02:21.228Z,40.40
2023-06-13T14:04:50.423Z,40.40
2023-06-13T14:07:19.572Z,40.40
2023-06-13T14:09:50.847Z,40.50
2023-06-13T14:12:20.515Z,40.50
2023-06-13T14:14:49.880Z,40.50
2023-06-13T14:17:21.637Z,40.60
2023-06-13T14:19:53.737Z,40.60
2023-06-13T14:22:20.849Z,40.60
2023-06-13T14:24:47.783Z,40.70
2023-06-13T14:27:19.942Z,40.70
2023-06-13T14:29:49.267Z,40.80
2023-06-13T14:32:18.589Z,40.80
2023-06-13T14:34:45.665Z,40.90
2023-06-13T14:37:14.792Z,40.90
2023-06-13T14:39:46.329Z,41.00
2023-06-13T14:42:18.891Z,41.00
2023-06-13T14:44:47.866Z,40.90
2023-06-13T14:47:19.590Z,40.70
2023-06-13T14:49:54.103Z,40.70
2023-06-13T14:52:20.961Z,40.70
2023-06-13T14:54:50.146Z,40.60
2023-06-13T14:57:17.008Z,40.60
2023-06-13T14:59:44.283Z,40.50
2023-06-13T15:02:13.414Z,40.40
2023-06-13T15:04:45.016Z,40.40
2023-06-13T15:07:16.806Z,40.40
2023-06-13T15:09:46.330Z,40.20
2023-06-13T15:12:13.286Z,40.20
2023-06-13T15:14:41.882Z,40.10
2023-06-13T15:17:09.354Z,40.10
2023-06-13T15:19:40.777Z,40.10
2023-06-13T15:22:10.085Z,40.10
2023-06-13T15:24:39.429Z,40.10
2023-06-13T15:27:07.449Z,40.00
2023-06-13T15:29:36.658Z,40.00
2023-06-13T15:32:08.017Z,39.90
2023-06-13T15:34:36.407Z,39.80
2023-06-13T15:37:07.318Z,39.70
2023-06-13T15:39:34.479Z,39.60
2023-06-13T15:42:04.066Z,39.50
2023-06-13T15:44:33.450Z,39.20
2023-06-13T15:47:02.495Z,38.90
2023-06-13T15:49:34.017Z,38.60
2023-06-13T15:52:05.460Z,38.20
2023-06-13T15:54:37.079Z,37.80
2023-06-13T15:57:04.366Z,37.50
2023-06-13T15:59:31.311Z,37.10
2023-06-13T16:02:03.087Z,36.70
2023-06-13T16:04:29.905Z,36.40
2023-06-13T16:06:59.384Z,36.10
2023-06-13T16:09:30.062Z,35.70
2023-06-13T16:12:01.616Z,35.50
2023-06-13T16:14:30.872Z,35.20
2023-06-13T16:16:57.795Z,34.90
2023-06-13T16:19:29.206Z,34.70
2023-06-13T16:22:01.356Z,34.40
2023-06-13T16:24:31.789Z,34.20
2023-06-13T16:26:58.711Z,34.00
2023-06-13T16:29:25.618Z,33.80
2023-06-13T16:31:59.742Z,33.60
2023-06-13T16:34:34.222Z,33.40
2023-06-13T16:37:05.868Z,33.30
2023-06-13T16:39:33.944Z,33.10
2023-06-13T16:42:01.408Z,33.00
2023-06-13T16:44:30.825Z,32.80
2023-06-13T16:47:00.077Z,32.70
2023-06-13T16:49:27.123Z,32.60
2023-06-13T16:51:56.272Z,32.50
2023-06-13T16:54:25.508Z,32.40
2023-06-13T16:56:52.470Z,32.20
2023-06-13T16:59:19.469Z,32.00
2023-06-13T17:01:53.585Z,32.00
2023-06-13T17:04:23.136Z,31.90
2023-06-13T17:06:57.017Z,31.70
2023-06-13T17:09:28.775Z,31.60
2023-06-13T17:12:00.437Z,31.50
2023-06-13T17:14:34.267Z,31.40
2023-06-13T17:17:04.996Z,31.30
2023-06-13T17:19:34.507Z,31.20
2023-06-13T17:22:03.796Z,31.10
2023-06-13T17:24:31.263Z,31.00
2023-06-13T17:27:02.208Z,30.90
2023-06-13T17:29:31.751Z,30.90
2023-06-13T17:32:03.497Z,30.80
2023-06-13T17:34:30.480Z,30.70
2023-06-13T17:36:59.824Z,30.60
2023-06-13T17:39:31.242Z,30.50
2023-06-13T17:42:03.386Z,30.50
2023-06-13T17:44:32.530Z,30.40
2023-06-13T17:47:04.427Z,30.30
2023-06-13T17:49:36.325Z,30.30
2023-06-13T17:52:06.952Z,30.20
2023-06-13T17:54:36.956Z,30.20
2023-06-13T17:57:04.251Z,30.00
2023-06-13T17:59:33.988Z,30.00
2023-06-13T18:02:03.734Z,29.90
2023-06-13T18:04:34.636Z,29.80
2023-06-13T18:07:05.737Z,29.70
2023-06-13T18:09:35.389Z,29.60
2023-06-13T18:12:16.620Z,29.50
2023-06-13T18:14:48.325Z,29.50
2023-06-13T18:17:19.848Z,29.30
2023-06-13T18:19:49.058Z,29.30
2023-06-13T18:22:18.245Z,29.20
2023-06-13T18:24:47.387Z,29.10
2023-06-13T18:27:14.586Z,29.10
2023-06-13T18:29:43.431Z,29.00
2023-06-13T18:32:11.067Z,28.90
2023-06-13T18:34:43.442Z,28.80
2023-06-13T18:37:15.919Z,28.70
2023-06-13T18:39:42.860Z,28.70
2023-06-13T18:42:10.471Z,28.60
2023-06-13T18:44:37.446Z,28.60
2023-06-13T18:47:04.797Z,28.50
2023-06-13T18:49:34.239Z,28.40
2023-06-13T18:52:02.868Z,28.40
2023-06-13T18:54:34.801Z,28.30
2023-06-13T18:57:10.093Z,28.20
2023-06-13T18:59:37.865Z,28.10
2023-06-13T19:02:10.462Z,28.00
2023-06-13T19:04:43.668Z,27.90
2023-06-13T19:07:10.568Z,27.90
2023-06-13T19:09:37.475Z,27.80
2023-06-13T19:12:08.050Z,27.70
2023-06-13T19:14:37.362Z,27.70
2023-06-13T19:17:07.090Z,27.60
2023-06-13T19:19:37.664Z,27.50
2023-06-13T19:22:05.399Z,27.40
2023-06-13T19:24:37.052Z,27.30
2023-06-13T19:27:04.278Z,27.30
2023-06-13T19:29:37.834Z,27.20
2023-06-13T19:32:07.104Z,27.10
2023-06-13T19:34:34.477Z,27.00
2023-06-13T19:37:08.544Z,26.90
2023-06-13T19:39:38.276Z,26.80
2023-06-13T19:42:06.735Z,26.70
2023-06-13T19:44:33.571Z,26.70
2023-06-13T19:47:06.551Z,26.60
2023-06-13T19:49:36.575Z,26.50
2023-06-13T19:52:06.142Z,26.40
2023-06-13T19:54:35.442Z,26.40
2023-06-13T19:57:03.884Z,26.30
2023-06-13T19:59:31.324Z,26.30
2023-06-13T20:02:02.814Z,26.20
2023-06-13T20:04:29.917Z,26.10
2023-06-13T20:06:59.324Z,26.00
2023-06-13T20:09:28.498Z,25.90
2023-06-13T20:11:55.879Z,25.80
2023-06-13T20:14:24.148Z,25.80
2023-06-13T20:16:51.060Z,25.70
2023-06-13T20:19:20.445Z,25.60
2023-06-13T20:21:49.401Z,25.60
2023-06-13T20:24:18.394Z,25.50
2023-06-13T20:26:50.027Z,25.40
2023-06-13T20:29:21.693Z,25.40
2023-06-13T20:31:48.684Z,25.30
2023-06-13T20:34:20.794Z,25.20
2023-06-13T20:36:52.485Z,25.10
2023-06-13T20:39:21.645Z,25.00
2023-06-13T20:41:49.563Z,25.00
2023-06-13T20:44:17.979Z,24.90
2023-06-13T20:46:49.288Z,24.80
2023-06-13T20:49:16.213Z,24.70
2023-06-13T20:51:51.491Z,24.60
2023-06-13T20:54:21.952Z,24.50
2023-06-13T20:56:52.221Z,24.40
2023-06-13T20:59:28.967Z,24.30
2023-06-13T21:01:58.570Z,24.20
2023-06-13T21:04:31.204Z,24.10
2023-06-13T21:07:01.761Z,24.10
2023-06-13T21:09:33.930Z,24.00
2023-06-13T21:12:00.848Z,24.00
2023-06-13T21:14:30.214Z,23.90
2023-06-13T21:16:57.152Z,23.80
2023-06-13T21:19:29.094Z,23.80
2023-06-13T21:21:58.778Z,23.70
2023-06-13T21:24:27.358Z,23.60
2023-06-13T21:26:54.528Z,23.60
2023-06-13T21:29:22.406Z,23.50
2023-06-13T21:31:52.380Z,23.50
2023-06-13T21:34:26.290Z,23.40
2023-06-13T21:37:01.384Z,23.40
2023-06-13T21:39:28.308Z,23.30
2023-06-13T21:41:59.938Z,23.30
2023-06-13T21:44:29.300Z,23.20
2023-06-13T21:46:58.424Z,23.20
2023-06-13T21:49:27.577Z,23.10
2023-06-13T21:51:54.482Z,23.00
2023-06-13T21:54:23.868Z,23.00
2023-06-13T21:56:50.724Z,22.90
2023-06-13T21:59:19.947Z,22.90
2023-06-13T22:01:48.905Z,22.90
2023-06-13T22:04:18.043Z,22.80
2023-06-13T22:06:46.949Z,22.80
2023-06-13T22:09:18.535Z,22.80
2023-06-13T22:11:48.039Z,22.70
2023-06-13T22:14:16.193Z,22.70
2023-06-13T22:16:43.367Z,22.60
2023-06-13T22:19:11.888Z,22.60
2023-06-13T22:21:41.395Z,22.50
2023-06-13T22:24:09.360Z,22.50
2023-06-13T22:26:40.997Z,22.40
2023-06-13T22:29:10.551Z,22.40
2023-06-13T22:31:37.503Z,22.30
2023-06-13T22:34:06.578Z,22.30
2023-06-13T22:36:36.657Z,22.20
2023-06-13T22:39:04.996Z,22.20
2023-06-13T22:41:34.627Z,22.10
2023-06-13T22:44:05.099Z,22.10
2023-06-13T22:46:37.370Z,22.10
2023-06-13T22:49:04.511Z,22.00
2023-06-13T22:51:37.454Z,22.00
2023-06-13T22:54:09.060Z,22.00
2023-06-13T22:56:38.223Z,21.90
2023-06-13T22:59:05.040Z,21.90
2023-06-13T23:01:33.949Z,21.80
2023-06-13T23:04:01.084Z,21.80
2023-06-13T23:06:35.246Z,21.70
2023-06-13T23:09:06.028Z,21.70
2023-06-13T23:11:33.057Z,21.70
2023-06-13T23:14:04.535Z,21.70
2023-06-13T23:16:32.121Z,21.60
2023-06-13T23:19:02.101Z,21.60
2023-06-13T23:21:28.973Z,21.60
2023-06-13T23:23:55.953Z,21.50
2023-06-13T23:26:25.056Z,21.50
2023-06-13T23:28:56.143Z,21.50
2023-06-13T23:31:29.667Z,21.40
2023-06-13T23:33:59.054Z,21.40
2023-06-13T23:36:29.098Z,21.40
2023-06-13T23:38:59.694Z,21.40
2023-06-13T23:41:28.595Z,21.30
2023-06-13T23:43:55.454Z,21.30
2023-06-13T23:46:24.480Z,21.30
2023-06-13T23:48:53.964Z,21.30
2023-06-13T23:51:20.958Z,21.30
2023-06-13T23:53:49.840Z,21.30
2023-06-13T23:56:16.778Z,21.20
2023-06-13T23:58:43.646Z,21.20
